createdAt,value
2019-06-01T00:00:19.384Z,10.20
2019-06-01T00:02:56.096Z,10.63
2019-06-01T00:05:25.019Z,11.50
2019-06-01T00:07:55.817Z,10.13
2019-06-01T00:10:27.685Z,8.75
2019-06-01T00:12:59.681Z,9.48
2019-06-01T00:15:30.642Z,7.50
2019-06-01T00:18:01.479Z,6.67
2019-06-01T00:20:33.348Z,7.33
2019-06-01T00:23:05.613Z,7.92
2019-06-01T00:25:36.545Z,9.10
2019-06-01T00:28:08.405Z,6.70
2019-06-01T00:30:39.343Z,6.12
2019-06-01T00:33:11.779Z,5.15
2019-06-01T00:35:43.499Z,5.25
2019-06-01T00:38:14.616Z,4.33
2019-06-01T00:40:45.844Z,3.58
2019-06-01T00:43:17.003Z,4.28
2019-06-01T00:45:48.573Z,6.35
2019-06-01T00:48:19.651Z,8.30
2019-06-01T00:50:51.032Z,5.90
2019-06-01T00:53:23.185Z,4.12
2019-06-01T00:55:53.953Z,5.33
2019-06-01T00:58:24.779Z,5.60
2019-06-01T01:00:55.723Z,4.85
2019-06-01T01:03:27.783Z,4.80
2019-06-01T01:05:58.787Z,4.37
2019-06-01T01:08:29.659Z,4.60
2019-06-01T01:11:00.495Z,4.22
2019-06-01T01:13:31.301Z,4.22
2019-06-01T01:16:02.166Z,4.22
2019-06-01T01:18:33.103Z,5.00
2019-06-01T01:21:04.004Z,4.65
2019-06-01T01:23:34.884Z,4.15
2019-06-01T01:26:05.816Z,5.08
2019-06-01T01:28:36.547Z,5.67
2019-06-01T01:31:13.856Z,4.12
2019-06-01T01:33:41.045Z,4.55
2019-06-01T01:36:11.819Z,3.20
2019-06-01T01:38:42.756Z,4.47
2019-06-01T01:41:13.592Z,3.17
2019-06-01T01:43:45.867Z,4.10
2019-06-01T01:46:16.601Z,4.40
2019-06-01T01:48:47.533Z,3.77
2019-06-01T01:51:18.577Z,4.08
2019-06-01T01:53:50.782Z,4.40
2019-06-01T01:56:21.677Z,5.25
2019-06-01T01:58:52.545Z,4.45
2019-06-01T02:01:23.474Z,3.98
2019-06-01T02:03:57.283Z,3.98
2019-06-01T02:06:29.304Z,4.22
2019-06-01T02:09:01.791Z,3.83
2019-06-01T02:11:34.344Z,4.30
2019-06-01T02:14:06.418Z,3.47
2019-06-01T02:16:37.372Z,4.45
2019-06-01T02:19:08.246Z,4.90
2019-06-01T02:21:39.113Z,4.67
2019-06-01T02:24:10.089Z,4.70
2019-06-01T02:26:41.023Z,4.60
2019-06-01T02:29:12.024Z,4.62
2019-06-01T02:31:43.061Z,4.62
2019-06-01T02:34:15.372Z,4.92
2019-06-01T02:36:46.211Z,4.72
2019-06-01T02:39:17.411Z,4.67
2019-06-01T02:41:48.773Z,4.00
2019-06-01T02:44:21.286Z,4.25
2019-06-01T02:46:52.219Z,4.75
2019-06-01T02:49:23.104Z,4.03
2019-06-01T02:51:55.063Z,4.97
2019-06-01T02:54:26.106Z,4.37
2019-06-01T02:56:57.891Z,4.83
2019-06-01T02:59:28.949Z,4.35
2019-06-01T03:02:06.720Z,4.97
2019-06-01T03:04:33.946Z,4.37
2019-06-01T03:07:06.807Z,3.50
2019-06-01T03:09:39.944Z,3.62
2019-06-01T03:12:13.033Z,2.87
2019-06-01T03:14:47.249Z,3.40
2019-06-01T03:17:20.055Z,4.50
2019-06-01T03:19:52.566Z,4.90
2019-06-01T03:22:25.428Z,4.27
2019-06-01T03:25:00.408Z,4.90
2019-06-01T03:27:32.998Z,3.83
2019-06-01T03:30:09.822Z,5.60
2019-06-01T03:32:40.918Z,5.30
2019-06-01T03:35:13.314Z,5.03
2019-06-01T03:37:44.077Z,5.67
2019-06-01T03:40:23.559Z,6.92
2019-06-01T03:42:47.459Z,6.50
2019-06-01T03:45:18.293Z,5.80
2019-06-01T03:47:49.231Z,5.87
2019-06-01T03:50:21.398Z,5.97
2019-06-01T03:52:52.290Z,6.12
2019-06-01T03:55:23.170Z,5.50
2019-06-01T03:57:55.318Z,6.08
2019-06-01T04:00:27.402Z,5.15
2019-06-01T04:02:58.306Z,5.43
2019-06-01T04:05:29.277Z,5.90
2019-06-01T04:08:01.264Z,7.42
2019-06-01T04:10:33.321Z,5.20
2019-06-01T04:13:04.118Z,6.20
2019-06-01T04:15:35.282Z,5.77
2019-06-01T04:18:08.057Z,5.65
2019-06-01T04:20:40.442Z,6.42
2019-06-01T04:23:12.395Z,9.93
2019-06-01T04:25:43.538Z,12.63
2019-06-01T04:28:14.375Z,7.78
2019-06-01T04:30:47.731Z,13.78
2019-06-01T04:33:18.810Z,8.55
2019-06-01T04:35:49.556Z,15.15
2019-06-01T04:38:20.550Z,17.27
2019-06-01T04:40:54.161Z,13.90
2019-06-01T04:43:24.917Z,12.75
2019-06-01T04:45:55.855Z,12.50
2019-06-01T04:48:26.793Z,16.62
2019-06-01T04:50:59.793Z,17.77
2019-06-01T04:53:30.717Z,19.12
2019-06-01T04:56:01.552Z,16.05
2019-06-01T04:58:32.491Z,16.30
2019-06-01T05:01:05.453Z,19.45
2019-06-01T05:03:36.313Z,19.12
2019-06-01T05:06:07.291Z,21.82
2019-06-01T05:08:38.290Z,18.65
2019-06-01T05:11:10.226Z,18.07
2019-06-01T05:13:41.739Z,20.23
2019-06-01T05:16:13.423Z,20.30
2019-06-01T05:18:46.138Z,20.43
2019-06-01T05:21:18.085Z,20.17
2019-06-01T05:23:48.909Z,16.40
2019-06-01T05:26:20.789Z,19.80
2019-06-01T05:28:51.659Z,17.75
2019-06-01T05:31:25.336Z,18.62
2019-06-01T05:33:56.082Z,19.62
2019-06-01T05:36:27.004Z,19.70
2019-06-01T05:38:57.737Z,19.37
2019-06-01T05:41:29.921Z,17.90
2019-06-01T05:44:00.740Z,17.70
2019-06-01T05:46:32.579Z,17.95
2019-06-01T05:49:03.434Z,17.45
2019-06-01T05:51:35.305Z,16.48
2019-06-01T05:54:06.218Z,16.12
2019-06-01T05:56:37.073Z,14.63
2019-06-01T05:59:07.880Z,14.28
2019-06-01T06:01:38.636Z,14.98
2019-06-01T06:04:09.471Z,14.07
2019-06-01T06:06:40.413Z,12.55
2019-06-01T06:09:11.688Z,13.38
2019-06-01T06:11:43.004Z,13.00
2019-06-01T06:14:15.390Z,13.05
2019-06-01T06:16:46.517Z,13.13
2019-06-01T06:19:21.120Z,12.73
2019-06-01T06:21:51.261Z,12.35
2019-06-01T06:24:22.714Z,11.33
2019-06-01T06:26:54.646Z,11.93
2019-06-01T06:29:25.427Z,11.25
2019-06-01T06:31:56.344Z,11.50
2019-06-01T06:34:27.180Z,11.63
2019-06-01T06:36:58.117Z,12.63
2019-06-01T06:39:29.568Z,11.12
2019-06-01T06:42:00.420Z,10.08
2019-06-01T06:44:31.348Z,11.00
2019-06-01T06:47:02.280Z,10.10
2019-06-01T06:49:34.422Z,9.55
2019-06-01T06:52:05.303Z,10.08
2019-06-01T06:54:36.117Z,8.75
2019-06-01T06:57:07.261Z,8.88
2019-06-01T06:59:39.837Z,8.15
2019-06-01T07:02:10.707Z,8.90
2019-06-01T07:04:41.588Z,8.43
2019-06-01T07:07:13.191Z,8.38
2019-06-01T07:09:45.230Z,8.35
2019-06-01T07:12:16.165Z,8.40
2019-06-01T07:14:47.026Z,8.18
2019-06-01T07:17:17.899Z,7.60
2019-06-01T07:19:48.774Z,8.13
2019-06-01T07:22:19.773Z,8.08
2019-06-01T07:24:50.959Z,8.15
2019-06-01T07:27:22.030Z,7.95
2019-06-01T07:29:53.960Z,8.25
2019-06-01T07:32:24.735Z,8.63
2019-06-01T07:34:55.697Z,8.45
2019-06-01T07:37:26.780Z,7.37
2019-06-01T07:39:57.814Z,7.70
2019-06-01T07:42:29.492Z,7.92
2019-06-01T07:45:01.540Z,6.37
2019-06-01T07:47:34.006Z,7.08
2019-06-01T07:50:06.785Z,7.72
2019-06-01T07:52:37.959Z,6.85
2019-06-01T07:55:08.978Z,6.95
2019-06-01T07:57:42.888Z,6.08
2019-06-01T08:00:12.436Z,6.80
2019-06-01T08:02:43.882Z,6.40
2019-06-01T08:05:14.875Z,7.00
2019-06-01T08:07:45.963Z,6.80
2019-06-01T08:10:24.855Z,7.22
2019-06-01T08:13:01.058Z,7.08
2019-06-01T08:15:34.546Z,5.95
2019-06-01T08:18:05.339Z,6.37
2019-06-01T08:20:38.218Z,6.30
2019-06-01T08:23:10.133Z,5.65
2019-06-01T08:25:40.943Z,5.92
2019-06-01T08:28:12.162Z,5.58
2019-06-01T08:30:44.306Z,7.25
2019-06-01T08:33:15.572Z,5.53
2019-06-01T08:35:46.313Z,5.33
2019-06-01T08:38:17.268Z,5.72
2019-06-01T08:40:49.110Z,5.67
2019-06-01T08:43:20.093Z,4.22
2019-06-01T08:45:51.082Z,4.17
2019-06-01T08:48:22.019Z,4.72
2019-06-01T08:50:52.843Z,4.60
2019-06-01T08:53:23.827Z,3.87
2019-06-01T08:55:54.935Z,3.95
2019-06-01T08:58:26.212Z,4.50
2019-06-01T09:00:57.187Z,4.33
2019-06-01T09:03:28.160Z,3.67
2019-06-01T09:05:59.055Z,3.00
2019-06-01T09:08:30.918Z,2.92
2019-06-01T09:11:02.929Z,3.30
2019-06-01T09:13:33.857Z,3.22
2019-06-01T09:16:06.243Z,3.25
2019-06-01T09:18:37.223Z,3.10
2019-06-01T09:21:08.078Z,3.37
2019-06-01T09:23:38.640Z,3.20
2019-06-01T09:26:09.316Z,3.17
2019-06-01T09:28:40.202Z,3.25
2019-06-01T09:31:12.472Z,2.77
2019-06-01T09:33:43.410Z,2.90
2019-06-01T09:36:14.348Z,2.50
2019-06-01T09:38:45.022Z,2.58
2019-06-01T09:41:17.608Z,2.37
2019-06-01T09:43:48.679Z,2.50
2019-06-01T09:46:19.637Z,2.10
2019-06-01T09:48:51.602Z,2.22
2019-06-01T09:51:23.876Z,1.80
2019-06-01T09:53:54.703Z,2.15
2019-06-01T09:56:25.643Z,1.98
2019-06-01T09:58:56.379Z,2.10
2019-06-01T10:01:28.181Z,1.85
2019-06-01T10:03:59.117Z,1.92
2019-06-01T10:06:30.383Z,1.82
2019-06-01T10:09:01.356Z,1.70
2019-06-01T10:11:34.297Z,2.10
2019-06-01T10:14:05.597Z,1.62
2019-06-01T10:16:39.003Z,1.67
2019-06-01T10:19:10.027Z,1.90
2019-06-01T10:21:42.302Z,1.80
2019-06-01T10:24:13.310Z,1.77
2019-06-01T10:26:44.095Z,2.00
2019-06-01T10:29:14.981Z,1.90
2019-06-01T10:31:47.142Z,2.02
2019-06-01T10:34:17.907Z,2.05
2019-06-01T10:36:48.822Z,1.85
2019-06-01T10:39:19.900Z,1.40
2019-06-01T10:41:53.111Z,1.67
2019-06-01T10:44:23.884Z,1.42
2019-06-01T10:46:55.175Z,1.30
2019-06-01T10:49:26.046Z,1.32
2019-06-01T10:51:57.030Z,1.27
2019-06-01T10:54:27.975Z,1.57
2019-06-01T10:56:58.804Z,1.47
2019-06-01T10:59:29.846Z,1.17
2019-06-01T11:02:01.809Z,1.35
2019-06-01T11:04:32.848Z,1.55
2019-06-01T11:07:03.994Z,1.85
2019-06-01T11:09:34.932Z,1.67
2019-06-01T11:12:07.278Z,1.47
2019-06-01T11:14:39.074Z,1.22
2019-06-01T11:17:11.224Z,1.20
2019-06-01T11:19:42.123Z,1.37
2019-06-01T11:22:14.330Z,1.37
2019-06-01T11:24:45.298Z,1.07
2019-06-01T11:27:16.179Z,1.12
2019-06-01T11:29:51.290Z,1.35
2019-06-01T11:32:20.972Z,1.20
2019-06-01T11:34:51.786Z,1.40
2019-06-01T11:37:22.538Z,1.20
2019-06-01T11:39:53.428Z,1.30
2019-06-01T11:42:27.999Z,1.10
2019-06-01T11:44:59.172Z,1.15
2019-06-01T11:47:29.955Z,1.00
2019-06-01T11:50:01.927Z,1.02
2019-06-01T11:52:34.947Z,1.02
2019-06-01T11:55:09.322Z,1.20
2019-06-01T11:57:41.482Z,1.00
2019-06-01T12:00:14.119Z,1.00
2019-06-01T12:02:46.300Z,1.05
2019-06-01T12:05:17.254Z,1.00
2019-06-01T12:07:49.633Z,0.98
2019-06-01T12:10:20.481Z,0.93
2019-06-01T12:12:52.443Z,1.10
2019-06-01T12:15:26.616Z,1.22
2019-06-01T12:17:56.079Z,0.95
2019-06-01T12:20:27.049Z,1.10
2019-06-01T12:22:57.811Z,1.17
2019-06-01T12:25:28.640Z,0.90
2019-06-01T12:27:59.480Z,0.80
2019-06-01T12:30:30.365Z,0.88
2019-06-01T12:33:01.242Z,0.90
2019-06-01T12:35:32.115Z,0.75
2019-06-01T12:38:06.928Z,1.00
2019-06-01T12:40:35.323Z,0.80
2019-06-01T12:43:06.258Z,0.95
2019-06-01T12:45:37.106Z,1.05
2019-06-01T12:48:08.083Z,0.80
2019-06-01T12:50:39.981Z,0.90
2019-06-01T12:53:13.597Z,1.00
2019-06-01T12:55:45.221Z,1.00
2019-06-01T12:58:16.872Z,0.85
2019-06-01T13:00:48.472Z,0.80
2019-06-01T13:03:20.350Z,0.80
2019-06-01T13:05:51.919Z,0.78
2019-06-01T13:08:22.876Z,0.90
2019-06-01T13:10:53.707Z,1.00
2019-06-01T13:13:27.005Z,0.85
2019-06-01T13:15:58.444Z,0.90
2019-06-01T13:18:29.949Z,0.85
2019-06-01T13:21:01.473Z,1.10
2019-06-01T13:23:35.075Z,1.10
2019-06-01T13:26:06.545Z,1.10
2019-06-01T13:28:38.510Z,1.05
2019-06-01T13:31:09.850Z,0.80
2019-06-01T13:33:42.223Z,1.12
2019-06-01T13:36:13.739Z,0.80
2019-06-01T13:38:44.857Z,0.80
2019-06-01T13:41:15.958Z,0.93
2019-06-01T13:43:51.495Z,1.20
2019-06-01T13:46:22.195Z,1.17
2019-06-01T13:48:54.203Z,0.80
2019-06-01T13:51:25.128Z,0.90
2019-06-01T13:53:57.131Z,1.10
2019-06-01T13:56:28.321Z,0.90
2019-06-01T13:59:00.087Z,0.80
2019-06-01T14:01:31.556Z,1.00
2019-06-01T14:04:04.064Z,1.02
2019-06-01T14:06:35.479Z,1.10
2019-06-01T14:09:07.813Z,0.95
2019-06-01T14:11:40.013Z,1.17
2019-06-01T14:14:11.452Z,1.00
2019-06-01T14:16:43.183Z,1.35
2019-06-01T14:19:15.023Z,0.98
2019-06-01T14:21:47.626Z,1.30
2019-06-01T14:24:20.213Z,0.90
2019-06-01T14:26:52.356Z,1.25
2019-06-01T14:29:23.837Z,1.17
2019-06-01T14:31:55.816Z,1.07
2019-06-01T14:34:28.383Z,1.22
2019-06-01T14:36:59.531Z,1.10
2019-06-01T14:39:31.019Z,1.40
2019-06-01T14:42:02.510Z,1.17
2019-06-01T14:44:35.850Z,1.27
2019-06-01T14:47:07.325Z,2.05
2019-06-01T14:49:38.190Z,1.25
2019-06-01T14:52:09.050Z,1.20
2019-06-01T14:54:43.224Z,1.00
2019-06-01T14:57:16.301Z,1.00
2019-06-01T14:59:56.255Z,1.45
2019-06-01T15:02:27.623Z,1.12
2019-06-01T15:04:58.893Z,1.00
2019-06-01T15:07:30.168Z,1.17
2019-06-01T15:10:01.887Z,0.90
2019-06-01T15:12:34.027Z,0.90
2019-06-01T15:15:09.965Z,1.20
2019-06-01T15:17:41.490Z,1.62
2019-06-01T15:20:13.325Z,1.10
2019-06-01T15:22:44.637Z,1.17
2019-06-01T15:25:16.051Z,1.35
2019-06-01T15:27:47.443Z,1.20
2019-06-01T15:30:18.898Z,1.07
2019-06-01T15:32:51.890Z,1.40
2019-06-01T15:35:22.866Z,1.42
2019-06-01T15:37:58.380Z,1.22
2019-06-01T15:40:26.123Z,1.25
2019-06-01T15:42:57.358Z,1.52
2019-06-01T15:45:29.239Z,1.47
2019-06-01T15:48:00.630Z,1.10
2019-06-01T15:50:32.120Z,1.42
2019-06-01T15:53:03.560Z,1.32
2019-06-01T15:55:34.452Z,1.42
2019-06-01T15:58:05.382Z,1.22
2019-06-01T16:00:36.324Z,1.00
2019-06-01T16:03:07.126Z,1.40
2019-06-01T16:05:38.096Z,1.30
2019-06-01T16:08:08.976Z,1.37
2019-06-01T16:10:39.868Z,1.35
2019-06-01T16:13:10.579Z,1.60
2019-06-01T16:15:41.492Z,1.10
2019-06-01T16:18:12.755Z,1.22
2019-06-01T16:20:43.823Z,1.32
2019-06-01T16:23:17.496Z,1.00
2019-06-01T16:26:01.525Z,1.20
2019-06-01T16:28:21.144Z,1.32
2019-06-01T16:30:52.081Z,1.40
2019-06-01T16:33:24.500Z,1.17
2019-06-01T16:35:56.983Z,1.22
2019-06-01T16:38:28.276Z,1.50
2019-06-01T16:40:59.419Z,1.20
2019-06-01T16:43:33.650Z,0.98
2019-06-01T16:46:06.093Z,1.40
2019-06-01T16:48:39.576Z,1.25
2019-06-01T16:51:11.022Z,1.10
2019-06-01T16:53:43.436Z,1.25
2019-06-01T16:56:14.673Z,1.50
2019-06-01T16:58:46.148Z,1.00
2019-06-01T17:01:17.343Z,1.27
2019-06-01T17:03:51.510Z,1.70
2019-06-01T17:06:23.312Z,1.50
2019-06-01T17:08:54.671Z,1.20
2019-06-01T17:11:26.140Z,1.40
2019-06-01T17:13:56.883Z,1.32
2019-06-01T17:16:27.650Z,1.22
2019-06-01T17:18:58.982Z,1.10
2019-06-01T17:21:31.165Z,1.32
2019-06-01T17:24:06.110Z,1.32
2019-06-01T17:26:37.500Z,1.65
2019-06-01T17:29:08.856Z,1.32
2019-06-01T17:31:53.563Z,1.30
2019-06-01T17:34:13.868Z,1.72
2019-06-01T17:36:44.734Z,1.55
2019-06-01T17:39:16.559Z,1.90
2019-06-01T17:41:47.426Z,1.22
2019-06-01T17:44:19.790Z,1.40
2019-06-01T17:46:53.989Z,1.30
2019-06-01T17:49:25.365Z,1.62
2019-06-01T17:51:56.542Z,1.52
2019-06-01T17:54:29.030Z,1.27
2019-06-01T17:57:01.050Z,1.32
2019-06-01T17:59:32.388Z,1.60
2019-06-01T18:02:04.139Z,1.60
2019-06-01T18:04:38.430Z,1.50
2019-06-01T18:07:10.330Z,1.45
2019-06-01T18:09:41.583Z,1.85
2019-06-01T18:12:12.341Z,1.70
2019-06-01T18:14:47.322Z,1.50
2019-06-01T18:17:19.125Z,1.70
2019-06-01T18:19:50.235Z,1.50
2019-06-01T18:22:23.237Z,1.70
2019-06-01T18:24:59.217Z,1.60
2019-06-01T18:27:32.061Z,1.80
2019-06-01T18:30:04.730Z,1.70
2019-06-01T18:32:36.708Z,1.57
2019-06-01T18:35:09.422Z,1.47
2019-06-01T18:37:42.043Z,1.75
2019-06-01T18:40:13.996Z,1.62
2019-06-01T18:42:49.528Z,1.55
2019-06-01T18:45:20.871Z,1.87
2019-06-01T18:47:52.368Z,1.92
2019-06-01T18:50:24.303Z,2.00
2019-06-01T18:52:58.255Z,1.80
2019-06-01T18:55:30.713Z,2.05
2019-06-01T18:58:03.927Z,1.80
2019-06-01T19:00:40.149Z,1.80
2019-06-01T19:03:13.591Z,1.80
2019-06-01T19:05:46.446Z,1.90
2019-06-01T19:08:17.313Z,2.37
2019-06-01T19:10:48.952Z,3.40
2019-06-01T19:13:20.545Z,5.22
2019-06-01T19:15:53.062Z,4.05
2019-06-01T19:18:24.342Z,3.98
2019-06-01T19:20:56.305Z,3.17
2019-06-01T19:23:28.438Z,2.90
2019-06-01T19:26:01.075Z,3.02
2019-06-01T19:28:32.359Z,2.40
2019-06-01T19:31:04.097Z,2.90
2019-06-01T19:33:35.976Z,2.67
2019-06-01T19:36:09.370Z,2.80
2019-06-01T19:38:42.039Z,2.10
2019-06-01T19:41:15.540Z,3.22
2019-06-01T19:43:47.551Z,2.80
2019-06-01T19:46:20.925Z,2.27
2019-06-01T19:48:53.658Z,2.08
2019-06-01T19:51:25.856Z,2.50
2019-06-01T19:53:58.582Z,2.58
2019-06-01T19:56:31.124Z,3.47
2019-06-01T19:59:02.609Z,3.10
2019-06-01T20:01:34.737Z,2.55
2019-06-01T20:04:06.556Z,3.10
2019-06-01T20:06:40.568Z,2.90
2019-06-01T20:09:13.016Z,3.33
2019-06-01T20:12:00.567Z,3.72
2019-06-01T20:14:19.193Z,3.15
2019-06-01T20:16:50.209Z,2.50
2019-06-01T20:19:21.884Z,3.00
2019-06-01T20:21:53.451Z,2.45
2019-06-01T20:24:24.433Z,2.58
2019-06-01T20:26:56.504Z,2.60
2019-06-01T20:29:27.793Z,2.67
2019-06-01T20:31:59.501Z,2.58
2019-06-01T20:34:31.171Z,2.40
2019-06-01T20:37:05.372Z,2.45
2019-06-01T20:39:39.438Z,3.15
2019-06-01T20:42:22.109Z,2.83
2019-06-01T20:44:43.510Z,2.70
2019-06-01T20:47:16.633Z,2.87
2019-06-01T20:49:48.702Z,3.25
2019-06-01T20:52:20.930Z,2.65
2019-06-01T20:54:52.182Z,3.27
2019-06-01T20:57:24.349Z,2.87
2019-06-01T20:59:55.897Z,2.75
2019-06-01T21:02:27.035Z,3.20
2019-06-01T21:04:58.183Z,3.02
2019-06-01T21:07:30.559Z,3.20
2019-06-01T21:10:01.536Z,3.27
2019-06-01T21:12:44.933Z,2.55
2019-06-01T21:15:07.299Z,2.60
2019-06-01T21:17:39.917Z,3.27
2019-06-01T21:20:11.558Z,3.02
2019-06-01T21:22:43.126Z,3.65
2019-06-01T21:25:14.734Z,3.40
2019-06-01T21:27:48.223Z,2.83
2019-06-01T21:30:22.580Z,2.92
2019-06-01T21:32:53.862Z,3.37
2019-06-01T21:35:25.548Z,3.05
2019-06-01T21:37:57.681Z,3.40
2019-06-01T21:40:29.243Z,2.90
2019-06-01T21:43:12.827Z,3.12
2019-06-01T21:45:34.034Z,2.90
2019-06-01T21:48:06.507Z,3.80
2019-06-01T21:50:38.678Z,3.95
2019-06-01T21:53:11.563Z,3.67
2019-06-01T21:55:42.985Z,3.67
2019-06-01T21:58:16.483Z,3.92
2019-06-01T22:00:48.516Z,4.22
2019-06-01T22:03:27.095Z,3.90
2019-06-01T22:05:54.360Z,3.47
2019-06-01T22:08:27.495Z,3.83
2019-06-01T22:11:00.905Z,3.12
2019-06-01T22:13:32.091Z,3.67
2019-06-01T22:16:03.272Z,3.83
2019-06-01T22:18:35.622Z,4.03
2019-06-01T22:21:07.300Z,4.35
2019-06-01T22:23:38.393Z,3.62
2019-06-01T22:26:09.468Z,4.05
2019-06-01T22:28:41.597Z,3.77
2019-06-01T22:31:12.675Z,3.35
2019-06-01T22:33:43.717Z,3.80
2019-06-01T22:36:15.098Z,3.02
2019-06-01T22:38:47.432Z,3.52
2019-06-01T22:41:19.811Z,3.83
2019-06-01T22:43:51.155Z,3.47
2019-06-01T22:46:22.345Z,4.10
2019-06-01T22:48:53.439Z,3.95
2019-06-01T22:51:25.023Z,5.15
2019-06-01T22:53:56.469Z,4.65
2019-06-01T22:56:27.576Z,4.85
2019-06-01T22:58:59.752Z,4.87
2019-06-01T23:01:30.589Z,4.95
2019-06-01T23:04:01.634Z,4.78
2019-06-01T23:06:32.563Z,5.53
2019-06-01T23:09:07.693Z,4.45
2019-06-01T23:11:38.740Z,5.00
2019-06-01T23:14:09.988Z,4.67
2019-06-01T23:16:41.277Z,4.83
2019-06-01T23:19:13.503Z,5.10
2019-06-01T23:21:44.595Z,5.08
2019-06-01T23:24:15.627Z,5.15
2019-06-01T23:26:46.830Z,4.80
2019-06-01T23:29:18.275Z,4.80
2019-06-01T23:31:49.421Z,4.97
2019-06-01T23:34:20.359Z,5.50
2019-06-01T23:36:51.795Z,5.75
2019-06-01T23:39:22.793Z,6.70
2019-06-01T23:41:53.695Z,5.67
2019-06-01T23:44:24.851Z,5.37
2019-06-01T23:46:57.016Z,5.30
2019-06-01T23:49:29.252Z,5.35
2019-06-01T23:52:00.201Z,6.10
2019-06-01T23:54:32.427Z,6.15
2019-06-01T23:57:03.819Z,5.83
2019-06-01T23:59:35.546Z,5.62
